sensor_id;sensor_type;location;lat;lon;timestamp;P1;durP1;ratioP1;P2;durP2;ratioP2
55617;SDS011;41492;49.804;9.952;2022-08-21T00:02:16;2.13;;;1.92;;
55617;SDS011;41492;49.804;9.952;2022-08-21T00:04:44;2.20;;;2.10;;
55617;SDS011;41492;49.804;9.952;2022-08-21T00:07:11;2.15;;;2.00;;
55617;SDS011;41492;49.804;9.952;2022-08-21T00:09:38;2.15;;;2.00;;
55617;SDS011;41492;49.804;9.952;2022-08-21T00:12:05;3.08;;;2.15;;
55617;SDS011;41492;49.804;9.952;2022-08-21T00:14:33;2.10;;;1.92;;
55617;SDS011;41492;49.804;9.952;2022-08-21T00:17:00;2.00;;;1.80;;
55617;SDS011;41492;49.804;9.952;2022-08-21T00:19:28;2.25;;;2.05;;
55617;SDS011;41492;49.804;9.952;2022-08-21T00:21:55;3.55;;;1.92;;
55617;SDS011;41492;49.804;9.952;2022-08-21T00:24:22;2.33;;;1.90;;
55617;SDS011;41492;49.804;9.952;2022-08-21T00:26:49;2.05;;;1.95;;
55617;SDS011;41492;49.804;9.952;2022-08-21T00:29:16;2.35;;;2.25;;
55617;SDS011;41492;49.804;9.952;2022-08-21T00:31:43;1.90;;;1.80;;
55617;SDS011;41492;49.804;9.952;2022-08-21T00:34:10;2.78;;;1.73;;
55617;SDS011;41492;49.804;9.952;2022-08-21T00:36:39;1.75;;;1.65;;
55617;SDS011;41492;49.804;9.952;2022-08-21T00:39:06;1.77;;;1.67;;
55617;SDS011;41492;49.804;9.952;2022-08-21T00:41:34;1.95;;;1.85;;
55617;SDS011;41492;49.804;9.952;2022-08-21T00:44:02;1.73;;;1.63;;
55617;SDS011;41492;49.804;9.952;2022-08-21T00:46:29;2.17;;;1.98;;
55617;SDS011;41492;49.804;9.952;2022-08-21T00:48:56;2.47;;;2.28;;
55617;SDS011;41492;49.804;9.952;2022-08-21T00:51:25;1.95;;;1.85;;
55617;SDS011;41492;49.804;9.952;2022-08-21T00:53:57;1.70;;;1.60;;
55617;SDS011;41492;49.804;9.952;2022-08-21T00:56:26;2.22;;;2.00;;
55617;SDS011;41492;49.804;9.952;2022-08-21T00:58:53;2.13;;;2.00;;
55617;SDS011;41492;49.804;9.952;2022-08-21T01:01:21;1.90;;;1.80;;
55617;SDS011;41492;49.804;9.952;2022-08-21T01:03:48;2.05;;;1.95;;
55617;SDS011;41492;49.804;9.952;2022-08-21T01:06:15;1.95;;;1.75;;
55617;SDS011;41492;49.804;9.952;2022-08-21T01:08:42;2.08;;;1.92;;
55617;SDS011;41492;49.804;9.952;2022-08-21T01:11:10;1.70;;;1.60;;
55617;SDS011;41492;49.804;9.952;2022-08-21T01:13:37;2.10;;;2.00;;
55617;SDS011;41492;49.804;9.952;2022-08-21T01:16:10;1.88;;;1.77;;
55617;SDS011;41492;49.804;9.952;2022-08-21T01:18:37;2.03;;;1.90;;
55617;SDS011;41492;49.804;9.952;2022-08-21T01:21:07;2.17;;;2.08;;
55617;SDS011;41492;49.804;9.952;2022-08-21T01:23:35;1.73;;;1.63;;
55617;SDS011;41492;49.804;9.952;2022-08-21T01:26:02;2.17;;;1.98;;
55617;SDS011;41492;49.804;9.952;2022-08-21T01:28:31;1.73;;;1.63;;
55617;SDS011;41492;49.804;9.952;2022-08-21T01:30:59;3.00;;;1.90;;
55617;SDS011;41492;49.804;9.952;2022-08-21T01:33:27;2.47;;;2.28;;
55617;SDS011;41492;49.804;9.952;2022-08-21T01:35:54;1.83;;;1.73;;
55617;SDS011;41492;49.804;9.952;2022-08-21T01:38:22;2.20;;;2.00;;
55617;SDS011;41492;49.804;9.952;2022-08-21T01:40:49;2.10;;;2.00;;
55617;SDS011;41492;49.804;9.952;2022-08-21T01:43:16;1.75;;;1.65;;
55617;SDS011;41492;49.804;9.952;2022-08-21T01:45:42;2.10;;;2.00;;
55617;SDS011;41492;49.804;9.952;2022-08-21T01:48:09;2.20;;;1.98;;
55617;SDS011;41492;49.804;9.952;2022-08-21T01:50:35;1.98;;;1.88;;
55617;SDS011;41492;49.804;9.952;2022-08-21T01:53:02;1.70;;;1.60;;
55617;SDS011;41492;49.804;9.952;2022-08-21T01:55:31;2.00;;;1.90;;
55617;SDS011;41492;49.804;9.952;2022-08-21T01:57:57;2.00;;;1.90;;
55617;SDS011;41492;49.804;9.952;2022-08-21T02:00:25;1.75;;;1.65;;
55617;SDS011;41492;49.804;9.952;2022-08-21T02:02:52;2.53;;;2.30;;
55617;SDS011;41492;49.804;9.952;2022-08-21T02:05:19;1.73;;;1.63;;
55617;SDS011;41492;49.804;9.952;2022-08-21T02:07:47;2.33;;;2.17;;
55617;SDS011;41492;49.804;9.952;2022-08-21T02:10:15;2.83;;;2.10;;
55617;SDS011;41492;49.804;9.952;2022-08-21T02:12:45;1.70;;;1.60;;
55617;SDS011;41492;49.804;9.952;2022-08-21T02:15:12;1.80;;;1.70;;
55617;SDS011;41492;49.804;9.952;2022-08-21T02:17:40;2.65;;;2.17;;
55617;SDS011;41492;49.804;9.952;2022-08-21T02:20:08;2.03;;;1.90;;
55617;SDS011;41492;49.804;9.952;2022-08-21T02:22:35;1.90;;;1.70;;
55617;SDS011;41492;49.804;9.952;2022-08-21T02:25:02;2.65;;;2.45;;
55617;SDS011;41492;49.804;9.952;2022-08-21T02:27:29;1.88;;;1.77;;
55617;SDS011;41492;49.804;9.952;2022-08-21T02:30:06;2.10;;;1.80;;
55617;SDS011;41492;49.804;9.952;2022-08-21T02:32:34;2.40;;;2.20;;
55617;SDS011;41492;49.804;9.952;2022-08-21T02:35:00;3.38;;;2.03;;
55617;SDS011;41492;49.804;9.952;2022-08-21T02:37:27;1.80;;;1.70;;
55617;SDS011;41492;49.804;9.952;2022-08-21T02:39:54;1.77;;;1.67;;
55617;SDS011;41492;49.804;9.952;2022-08-21T02:42:20;2.00;;;1.80;;
55617;SDS011;41492;49.804;9.952;2022-08-21T02:44:47;1.88;;;1.77;;
55617;SDS011;41492;49.804;9.952;2022-08-21T02:47:15;2.28;;;2.08;;
55617;SDS011;41492;49.804;9.952;2022-08-21T02:49:41;2.47;;;1.60;;
55617;SDS011;41492;49.804;9.952;2022-08-21T02:52:08;1.88;;;1.77;;
55617;SDS011;41492;49.804;9.952;2022-08-21T02:54:36;2.03;;;1.92;;
55617;SDS011;41492;49.804;9.952;2022-08-21T02:57:03;1.85;;;1.75;;
55617;SDS011;41492;49.804;9.952;2022-08-21T02:59:29;2.22;;;1.83;;
55617;SDS011;41492;49.804;9.952;2022-08-21T03:01:56;2.85;;;2.10;;
55617;SDS011;41492;49.804;9.952;2022-08-21T03:04:24;1.70;;;1.60;;
55617;SDS011;41492;49.804;9.952;2022-08-21T03:06:50;2.33;;;2.13;;
55617;SDS011;41492;49.804;9.952;2022-08-21T03:09:17;2.10;;;2.00;;
55617;SDS011;41492;49.804;9.952;2022-08-21T03:11:43;2.10;;;2.00;;
55617;SDS011;41492;49.804;9.952;2022-08-21T03:14:10;1.98;;;1.80;;
55617;SDS011;41492;49.804;9.952;2022-08-21T03:16:37;1.90;;;1.80;;
55617;SDS011;41492;49.804;9.952;2022-08-21T03:19:03;2.00;;;1.80;;
55617;SDS011;41492;49.804;9.952;2022-08-21T03:21:31;2.20;;;2.00;;
55617;SDS011;41492;49.804;9.952;2022-08-21T03:23:58;2.33;;;2.00;;
55617;SDS011;41492;49.804;9.952;2022-08-21T03:26:25;2.15;;;2.05;;
55617;SDS011;41492;49.804;9.952;2022-08-21T03:28:51;1.85;;;1.75;;
55617;SDS011;41492;49.804;9.952;2022-08-21T03:31:18;1.85;;;1.75;;
55617;SDS011;41492;49.804;9.952;2022-08-21T03:33:46;2.15;;;2.03;;
55617;SDS011;41492;49.804;9.952;2022-08-21T03:36:13;2.25;;;2.03;;
55617;SDS011;41492;49.804;9.952;2022-08-21T03:38:41;1.63;;;1.52;;
55617;SDS011;41492;49.804;9.952;2022-08-21T03:41:08;2.10;;;2.00;;
55617;SDS011;41492;49.804;9.952;2022-08-21T03:43:34;2.28;;;2.08;;
55617;SDS011;41492;49.804;9.952;2022-08-21T03:46:02;1.70;;;1.60;;
55617;SDS011;41492;49.804;9.952;2022-08-21T03:48:29;2.10;;;2.00;;
55617;SDS011;41492;49.804;9.952;2022-08-21T03:50:55;2.03;;;1.92;;
55617;SDS011;41492;49.804;9.952;2022-08-21T03:53:22;1.80;;;1.70;;
55617;SDS011;41492;49.804;9.952;2022-08-21T03:55:51;3.08;;;1.92;;
55617;SDS011;41492;49.804;9.952;2022-08-21T03:58:19;2.22;;;2.10;;
55617;SDS011;41492;49.804;9.952;2022-08-21T04:00:49;2.13;;;1.95;;
55617;SDS011;41492;49.804;9.952;2022-08-21T04:03:17;1.90;;;1.80;;
55617;SDS011;41492;49.804;9.952;2022-08-21T04:05:44;3.22;;;1.83;;
55617;SDS011;41492;49.804;9.952;2022-08-21T04:08:12;1.80;;;1.70;;
55617;SDS011;41492;49.804;9.952;2022-08-21T04:10:39;1.77;;;1.67;;
55617;SDS011;41492;49.804;9.952;2022-08-21T04:13:08;1.95;;;1.85;;
55617;SDS011;41492;49.804;9.952;2022-08-21T04:15:34;2.20;;;2.05;;
55617;SDS011;41492;49.804;9.952;2022-08-21T04:18:02;1.95;;;1.80;;
55617;SDS011;41492;49.804;9.952;2022-08-21T04:20:29;1.65;;;1.55;;
55617;SDS011;41492;49.804;9.952;2022-08-21T04:22:55;1.85;;;1.75;;
55617;SDS011;41492;49.804;9.952;2022-08-21T04:25:22;2.00;;;1.90;;
55617;SDS011;41492;49.804;9.952;2022-08-21T04:27:50;2.03;;;1.92;;
55617;SDS011;41492;49.804;9.952;2022-08-21T04:30:18;2.03;;;1.92;;
55617;SDS011;41492;49.804;9.952;2022-08-21T04:32:46;1.90;;;1.80;;
55617;SDS011;41492;49.804;9.952;2022-08-21T04:35:15;2.30;;;2.10;;
55617;SDS011;41492;49.804;9.952;2022-08-21T04:37:42;1.90;;;1.80;;
55617;SDS011;41492;49.804;9.952;2022-08-21T04:40:10;2.00;;;1.90;;
55617;SDS011;41492;49.804;9.952;2022-08-21T04:42:40;1.67;;;1.58;;
55617;SDS011;41492;49.804;9.952;2022-08-21T04:45:08;2.00;;;1.90;;
55617;SDS011;41492;49.804;9.952;2022-08-21T04:47:36;1.95;;;1.85;;
55617;SDS011;41492;49.804;9.952;2022-08-21T04:50:03;2.20;;;2.00;;
55617;SDS011;41492;49.804;9.952;2022-08-21T04:52:30;2.40;;;2.00;;
55617;SDS011;41492;49.804;9.952;2022-08-21T04:54:56;2.22;;;2.00;;
55617;SDS011;41492;49.804;9.952;2022-08-21T04:57:23;1.83;;;1.73;;
55617;SDS011;41492;49.804;9.952;2022-08-21T04:59:51;2.67;;;2.20;;
55617;SDS011;41492;49.804;9.952;2022-08-21T05:02:17;2.00;;;1.90;;
55617;SDS011;41492;49.804;9.952;2022-08-21T05:04:46;1.75;;;1.65;;
55617;SDS011;41492;49.804;9.952;2022-08-21T05:07:17;2.28;;;2.10;;
55617;SDS011;41492;49.804;9.952;2022-08-21T05:09:45;2.00;;;1.90;;
55617;SDS011;41492;49.804;9.952;2022-08-21T05:12:12;1.95;;;1.80;;
55617;SDS011;41492;49.804;9.952;2022-08-21T05:14:39;2.05;;;1.95;;
55617;SDS011;41492;49.804;9.952;2022-08-21T05:17:07;1.90;;;1.80;;
55617;SDS011;41492;49.804;9.952;2022-08-21T05:19:34;2.05;;;1.95;;
55617;SDS011;41492;49.804;9.952;2022-08-21T05:22:02;2.20;;;2.10;;
55617;SDS011;41492;49.804;9.952;2022-08-21T05:24:29;2.30;;;2.10;;
55617;SDS011;41492;49.804;9.952;2022-08-21T05:26:55;2.03;;;1.85;;
55617;SDS011;41492;49.804;9.952;2022-08-21T05:29:22;2.10;;;2.00;;
55617;SDS011;41492;49.804;9.952;2022-08-21T05:31:48;2.50;;;2.30;;
55617;SDS011;41492;49.804;9.952;2022-08-21T05:34:17;2.03;;;1.92;;
55617;SDS011;41492;49.804;9.952;2022-08-21T05:36:45;2.00;;;1.90;;
55617;SDS011;41492;49.804;9.952;2022-08-21T05:39:13;2.03;;;1.92;;
55617;SDS011;41492;49.804;9.952;2022-08-21T05:41:40;2.05;;;1.95;;
55617;SDS011;41492;49.804;9.952;2022-08-21T05:44:06;2.78;;;2.58;;
55617;SDS011;41492;49.804;9.952;2022-08-21T05:46:33;2.15;;;2.05;;
55617;SDS011;41492;49.804;9.952;2022-08-21T05:48:59;2.60;;;2.40;;
55617;SDS011;41492;49.804;9.952;2022-08-21T05:51:26;2.85;;;2.25;;
55617;SDS011;41492;49.804;9.952;2022-08-21T05:53:53;2.45;;;2.25;;
55617;SDS011;41492;49.804;9.952;2022-08-21T05:56:20;2.38;;;2.20;;
55617;SDS011;41492;49.804;9.952;2022-08-21T05:58:47;1.98;;;1.88;;
55617;SDS011;41492;49.804;9.952;2022-08-21T06:01:13;2.25;;;2.15;;
55617;SDS011;41492;49.804;9.952;2022-08-21T06:03:41;2.63;;;2.42;;
55617;SDS011;41492;49.804;9.952;2022-08-21T06:06:08;2.70;;;2.50;;
55617;SDS011;41492;49.804;9.952;2022-08-21T06:08:34;2.25;;;2.10;;
55617;SDS011;41492;49.804;9.952;2022-08-21T06:11:01;2.90;;;2.60;;
55617;SDS011;41492;49.804;9.952;2022-08-21T06:13:30;2.50;;;2.30;;
55617;SDS011;41492;49.804;9.952;2022-08-21T06:16:01;2.60;;;2.40;;
55617;SDS011;41492;49.804;9.952;2022-08-21T06:18:28;7.15;;;2.53;;
55617;SDS011;41492;49.804;9.952;2022-08-21T06:20:55;2.38;;;2.20;;
55617;SDS011;41492;49.804;9.952;2022-08-21T06:23:21;2.70;;;2.50;;
55617;SDS011;41492;49.804;9.952;2022-08-21T06:25:48;2.60;;;2.40;;
55617;SDS011;41492;49.804;9.952;2022-08-21T06:28:14;2.75;;;2.55;;
55617;SDS011;41492;49.804;9.952;2022-08-21T06:30:42;2.63;;;2.42;;
55617;SDS011;41492;49.804;9.952;2022-08-21T06:33:09;2.63;;;2.42;;
55617;SDS011;41492;49.804;9.952;2022-08-21T06:35:36;2.20;;;2.10;;
55617;SDS011;41492;49.804;9.952;2022-08-21T06:38:02;2.70;;;2.50;;
55617;SDS011;41492;49.804;9.952;2022-08-21T06:40:29;2.55;;;2.35;;
55617;SDS011;41492;49.804;9.952;2022-08-21T06:42:56;2.75;;;2.55;;
55617;SDS011;41492;49.804;9.952;2022-08-21T06:45:23;2.47;;;2.28;;
55617;SDS011;41492;49.804;9.952;2022-08-21T06:47:52;2.70;;;2.50;;
55617;SDS011;41492;49.804;9.952;2022-08-21T06:50:18;2.85;;;2.60;;
55617;SDS011;41492;49.804;9.952;2022-08-21T06:52:45;3.20;;;2.90;;
55617;SDS011;41492;49.804;9.952;2022-08-21T06:55:11;2.53;;;2.33;;
55617;SDS011;41492;49.804;9.952;2022-08-21T06:57:38;2.83;;;2.63;;
55617;SDS011;41492;49.804;9.952;2022-08-21T07:00:05;2.80;;;2.60;;
55617;SDS011;41492;49.804;9.952;2022-08-21T07:02:33;2.45;;;2.33;;
55617;SDS011;41492;49.804;9.952;2022-08-21T07:05:01;2.60;;;2.40;;
55617;SDS011;41492;49.804;9.952;2022-08-21T07:07:27;2.83;;;2.47;;
55617;SDS011;41492;49.804;9.952;2022-08-21T07:09:54;2.58;;;2.40;;
55617;SDS011;41492;49.804;9.952;2022-08-21T07:12:20;2.95;;;2.75;;
55617;SDS011;41492;49.804;9.952;2022-08-21T07:14:47;3.83;;;2.88;;
55617;SDS011;41492;49.804;9.952;2022-08-21T07:17:14;2.65;;;2.47;;
55617;SDS011;41492;49.804;9.952;2022-08-21T07:19:40;2.75;;;2.55;;
55617;SDS011;41492;49.804;9.952;2022-08-21T07:22:08;2.80;;;2.60;;
55617;SDS011;41492;49.804;9.952;2022-08-21T07:24:34;2.65;;;2.50;;
55617;SDS011;41492;49.804;9.952;2022-08-21T07:27:01;3.00;;;2.80;;
55617;SDS011;41492;49.804;9.952;2022-08-21T07:29:28;2.65;;;2.45;;
55617;SDS011;41492;49.804;9.952;2022-08-21T07:31:54;2.47;;;2.20;;
55617;SDS011;41492;49.804;9.952;2022-08-21T07:34:21;3.25;;;2.95;;
55617;SDS011;41492;49.804;9.952;2022-08-21T07:36:47;3.13;;;2.50;;
55617;SDS011;41492;49.804;9.952;2022-08-21T07:39:15;3.15;;;2.85;;
55617;SDS011;41492;49.804;9.952;2022-08-21T07:41:42;2.47;;;2.28;;
55617;SDS011;41492;49.804;9.952;2022-08-21T07:44:08;2.97;;;2.78;;
55617;SDS011;41492;49.804;9.952;2022-08-21T07:46:35;3.10;;;2.80;;
55617;SDS011;41492;49.804;9.952;2022-08-21T07:49:01;3.13;;;2.92;;
55617;SDS011;41492;49.804;9.952;2022-08-21T07:51:28;2.85;;;2.65;;
55617;SDS011;41492;49.804;9.952;2022-08-21T07:53:56;3.00;;;2.80;;
55617;SDS011;41492;49.804;9.952;2022-08-21T07:56:25;3.20;;;3.00;;
55617;SDS011;41492;49.804;9.952;2022-08-21T07:58:52;3.00;;;2.80;;
55617;SDS011;41492;49.804;9.952;2022-08-21T08:01:19;3.17;;;2.88;;
55617;SDS011;41492;49.804;9.952;2022-08-21T08:03:46;2.67;;;2.47;;
55617;SDS011;41492;49.804;9.952;2022-08-21T08:06:13;2.90;;;2.70;;
55617;SDS011;41492;49.804;9.952;2022-08-21T08:08:41;3.40;;;3.10;;
55617;SDS011;41492;49.804;9.952;2022-08-21T08:11:09;3.08;;;2.88;;
55617;SDS011;41492;49.804;9.952;2022-08-21T08:13:39;3.10;;;2.80;;
55617;SDS011;41492;49.804;9.952;2022-08-21T08:16:07;3.92;;;2.97;;
55617;SDS011;41492;49.804;9.952;2022-08-21T08:18:34;3.58;;;3.28;;
55617;SDS011;41492;49.804;9.952;2022-08-21T08:21:01;2.88;;;2.63;;
55617;SDS011;41492;49.804;9.952;2022-08-21T08:23:27;2.83;;;2.63;;
55617;SDS011;41492;49.804;9.952;2022-08-21T08:25:55;2.88;;;2.67;;
55617;SDS011;41492;49.804;9.952;2022-08-21T08:28:22;2.60;;;2.40;;
55617;SDS011;41492;49.804;9.952;2022-08-21T08:30:50;2.95;;;2.75;;
55617;SDS011;41492;49.804;9.952;2022-08-21T08:33:17;2.88;;;2.67;;
55617;SDS011;41492;49.804;9.952;2022-08-21T08:35:44;3.05;;;2.80;;
55617;SDS011;41492;49.804;9.952;2022-08-21T08:38:13;3.10;;;2.90;;
55617;SDS011;41492;49.804;9.952;2022-08-21T08:40:44;3.17;;;2.97;;
55617;SDS011;41492;49.804;9.952;2022-08-21T08:43:14;2.90;;;2.70;;
55617;SDS011;41492;49.804;9.952;2022-08-21T08:45:42;10.75;;;3.50;;
55617;SDS011;41492;49.804;9.952;2022-08-21T08:48:12;3.20;;;2.75;;
55617;SDS011;41492;49.804;9.952;2022-08-21T08:50:41;2.70;;;2.50;;
55617;SDS011;41492;49.804;9.952;2022-08-21T08:53:11;3.20;;;2.85;;
55617;SDS011;41492;49.804;9.952;2022-08-21T08:55:41;3.45;;;3.15;;
55617;SDS011;41492;49.804;9.952;2022-08-21T08:58:09;3.13;;;2.92;;
55617;SDS011;41492;49.804;9.952;2022-08-21T09:00:38;2.95;;;2.75;;
55617;SDS011;41492;49.804;9.952;2022-08-21T09:03:05;2.65;;;2.45;;
55617;SDS011;41492;49.804;9.952;2022-08-21T09:05:36;2.90;;;2.70;;
55617;SDS011;41492;49.804;9.952;2022-08-21T09:08:14;3.08;;;2.88;;
55617;SDS011;41492;49.804;9.952;2022-08-21T09:10:51;3.15;;;2.92;;
55617;SDS011;41492;49.804;9.952;2022-08-21T09:13:25;3.35;;;3.05;;
55617;SDS011;41492;49.804;9.952;2022-08-21T09:16:00;3.58;;;3.00;;
55617;SDS011;41492;49.804;9.952;2022-08-21T09:18:35;3.00;;;2.80;;
55617;SDS011;41492;49.804;9.952;2022-08-21T09:21:11;2.90;;;2.70;;
55617;SDS011;41492;49.804;9.952;2022-08-21T09:23:43;3.35;;;3.05;;
55617;SDS011;41492;49.804;9.952;2022-08-21T09:26:17;2.90;;;2.70;;
55617;SDS011;41492;49.804;9.952;2022-08-21T09:28:44;3.40;;;3.10;;
55617;SDS011;41492;49.804;9.952;2022-08-21T09:31:15;2.90;;;2.70;;
55617;SDS011;41492;49.804;9.952;2022-08-21T09:33:47;3.25;;;2.95;;
55617;SDS011;41492;49.804;9.952;2022-08-21T09:36:23;2.83;;;2.63;;
55617;SDS011;41492;49.804;9.952;2022-08-21T09:38:52;3.40;;;3.10;;
55617;SDS011;41492;49.804;9.952;2022-08-21T09:41:25;3.78;;;2.75;;
55617;SDS011;41492;49.804;9.952;2022-08-21T09:43:52;2.55;;;2.35;;
55617;SDS011;41492;49.804;9.952;2022-08-21T09:46:20;3.00;;;2.70;;
55617;SDS011;41492;49.804;9.952;2022-08-21T09:48:49;4.78;;;3.17;;
55617;SDS011;41492;49.804;9.952;2022-08-21T09:51:18;2.28;;;2.17;;
55617;SDS011;41492;49.804;9.952;2022-08-21T09:53:49;3.35;;;3.05;;
55617;SDS011;41492;49.804;9.952;2022-08-21T09:56:19;2.90;;;2.70;;
55617;SDS011;41492;49.804;9.952;2022-08-21T09:59:16;2.90;;;2.70;;
55617;SDS011;41492;49.804;9.952;2022-08-21T10:01:46;3.10;;;2.90;;
55617;SDS011;41492;49.804;9.952;2022-08-21T10:04:15;2.80;;;2.60;;
55617;SDS011;41492;49.804;9.952;2022-08-21T10:06:46;3.17;;;2.88;;
55617;SDS011;41492;49.804;9.952;2022-08-21T10:09:15;3.40;;;3.08;;
55617;SDS011;41492;49.804;9.952;2022-08-21T10:11:44;2.83;;;2.63;;
55617;SDS011;41492;49.804;9.952;2022-08-21T10:14:18;3.08;;;2.88;;
55617;SDS011;41492;49.804;9.952;2022-08-21T10:16:52;2.90;;;2.70;;
55617;SDS011;41492;49.804;9.952;2022-08-21T10:19:24;4.28;;;2.88;;
55617;SDS011;41492;49.804;9.952;2022-08-21T10:21:57;2.95;;;2.75;;
55617;SDS011;41492;49.804;9.952;2022-08-21T10:24:28;3.28;;;3.08;;
55617;SDS011;41492;49.804;9.952;2022-08-21T10:27:02;3.05;;;2.85;;
55617;SDS011;41492;49.804;9.952;2022-08-21T10:29:39;3.20;;;2.90;;
55617;SDS011;41492;49.804;9.952;2022-08-21T10:32:19;3.53;;;3.22;;
55617;SDS011;41492;49.804;9.952;2022-08-21T10:34:54;3.63;;;3.20;;
55617;SDS011;41492;49.804;9.952;2022-08-21T10:37:26;3.20;;;2.83;;
55617;SDS011;41492;49.804;9.952;2022-08-21T10:40:05;3.10;;;2.88;;
55617;SDS011;41492;49.804;9.952;2022-08-21T10:42:38;3.83;;;3.53;;
55617;SDS011;41492;49.804;9.952;2022-08-21T10:45:15;3.15;;;2.85;;
55617;SDS011;41492;49.804;9.952;2022-08-21T10:47:50;2.92;;;2.72;;
55617;SDS011;41492;49.804;9.952;2022-08-21T10:50:24;2.90;;;2.70;;
55617;SDS011;41492;49.804;9.952;2022-08-21T10:55:51;3.13;;;2.92;;
55617;SDS011;41492;49.804;9.952;2022-08-21T10:58:20;3.45;;;3.15;;
55617;SDS011;41492;49.804;9.952;2022-08-21T11:00:51;2.85;;;2.65;;
55617;SDS011;41492;49.804;9.952;2022-08-21T11:03:21;3.08;;;2.78;;
55617;SDS011;41492;49.804;9.952;2022-08-21T11:05:51;2.92;;;2.58;;
55617;SDS011;41492;49.804;9.952;2022-08-21T11:08:21;3.53;;;3.22;;
55617;SDS011;41492;49.804;9.952;2022-08-21T11:10:52;3.05;;;2.85;;
55617;SDS011;41492;49.804;9.952;2022-08-21T11:13:22;3.15;;;2.88;;
55617;SDS011;41492;49.804;9.952;2022-08-21T11:15:55;2.80;;;2.60;;
55617;SDS011;41492;49.804;9.952;2022-08-21T11:18:24;2.97;;;2.70;;
55617;SDS011;41492;49.804;9.952;2022-08-21T11:20:56;3.30;;;2.80;;
55617;SDS011;41492;49.804;9.952;2022-08-21T11:23:29;2.75;;;2.55;;
55617;SDS011;41492;49.804;9.952;2022-08-21T11:26:02;2.85;;;2.63;;
55617;SDS011;41492;49.804;9.952;2022-08-21T11:28:34;2.83;;;2.63;;
55617;SDS011;41492;49.804;9.952;2022-08-21T11:31:07;3.13;;;2.80;;
55617;SDS011;41492;49.804;9.952;2022-08-21T11:33:44;3.03;;;2.75;;
55617;SDS011;41492;49.804;9.952;2022-08-21T11:36:19;3.05;;;2.75;;
55617;SDS011;41492;49.804;9.952;2022-08-21T11:38:50;3.17;;;2.97;;
55617;SDS011;41492;49.804;9.952;2022-08-21T11:41:25;2.60;;;2.40;;
55617;SDS011;41492;49.804;9.952;2022-08-21T11:43:57;3.33;;;2.83;;
55617;SDS011;41492;49.804;9.952;2022-08-21T11:46:31;2.75;;;2.55;;
55617;SDS011;41492;49.804;9.952;2022-08-21T11:49:11;2.92;;;2.70;;
55617;SDS011;41492;49.804;9.952;2022-08-21T11:51:48;2.78;;;2.58;;
55617;SDS011;41492;49.804;9.952;2022-08-21T11:54:20;3.08;;;2.78;;
55617;SDS011;41492;49.804;9.952;2022-08-21T11:56:53;3.35;;;3.05;;
55617;SDS011;41492;49.804;9.952;2022-08-21T11:59:22;2.78;;;2.58;;
55617;SDS011;41492;49.804;9.952;2022-08-21T12:01:50;2.85;;;2.65;;
55617;SDS011;41492;49.804;9.952;2022-08-21T12:04:18;3.33;;;3.03;;
55617;SDS011;41492;49.804;9.952;2022-08-21T12:06:52;3.75;;;3.33;;
55617;SDS011;41492;49.804;9.952;2022-08-21T12:09:29;2.80;;;2.60;;
55617;SDS011;41492;49.804;9.952;2022-08-21T12:12:02;2.85;;;2.65;;
55617;SDS011;41492;49.804;9.952;2022-08-21T12:14:39;2.92;;;2.72;;
55617;SDS011;41492;49.804;9.952;2022-08-21T12:17:07;3.00;;;2.80;;
55617;SDS011;41492;49.804;9.952;2022-08-21T12:19:35;3.15;;;2.85;;
55617;SDS011;41492;49.804;9.952;2022-08-21T12:22:08;3.20;;;3.00;;
55617;SDS011;41492;49.804;9.952;2022-08-21T12:24:37;2.67;;;2.47;;
55617;SDS011;41492;49.804;9.952;2022-08-21T12:27:19;3.13;;;2.90;;
55617;SDS011;41492;49.804;9.952;2022-08-21T12:29:52;2.80;;;2.60;;
55617;SDS011;41492;49.804;9.952;2022-08-21T12:32:22;3.38;;;3.05;;
55617;SDS011;41492;49.804;9.952;2022-08-21T12:34:52;3.17;;;2.88;;
55617;SDS011;41492;49.804;9.952;2022-08-21T12:37:22;3.00;;;2.80;;
55617;SDS011;41492;49.804;9.952;2022-08-21T12:39:51;2.95;;;2.65;;
55617;SDS011;41492;49.804;9.952;2022-08-21T12:42:20;3.20;;;3.00;;
55617;SDS011;41492;49.804;9.952;2022-08-21T12:44:50;3.17;;;2.85;;
55617;SDS011;41492;49.804;9.952;2022-08-21T12:47:22;3.42;;;3.13;;
55617;SDS011;41492;49.804;9.952;2022-08-21T12:49:54;3.13;;;2.83;;
55617;SDS011;41492;49.804;9.952;2022-08-21T12:52:33;2.83;;;2.63;;
55617;SDS011;41492;49.804;9.952;2022-08-21T12:55:02;2.65;;;2.45;;
55617;SDS011;41492;49.804;9.952;2022-08-21T12:57:31;4.32;;;3.15;;
55617;SDS011;41492;49.804;9.952;2022-08-21T12:59:59;3.00;;;2.80;;
55617;SDS011;41492;49.804;9.952;2022-08-21T13:02:28;2.80;;;2.60;;
55617;SDS011;41492;49.804;9.952;2022-08-21T13:04:56;3.17;;;2.78;;
55617;SDS011;41492;49.804;9.952;2022-08-21T13:07:25;3.05;;;2.85;;
55617;SDS011;41492;49.804;9.952;2022-08-21T13:09:55;9.63;;;2.58;;
55617;SDS011;41492;49.804;9.952;2022-08-21T13:12:27;3.38;;;2.90;;
55617;SDS011;41492;49.804;9.952;2022-08-21T13:14:57;3.13;;;2.83;;
55617;SDS011;41492;49.804;9.952;2022-08-21T13:17:24;3.22;;;2.92;;
55617;SDS011;41492;49.804;9.952;2022-08-21T13:19:52;2.95;;;2.75;;
55617;SDS011;41492;49.804;9.952;2022-08-21T13:22:20;3.00;;;2.67;;
55617;SDS011;41492;49.804;9.952;2022-08-21T13:24:47;3.05;;;2.85;;
55617;SDS011;41492;49.804;9.952;2022-08-21T13:27:18;2.78;;;2.58;;
55617;SDS011;41492;49.804;9.952;2022-08-21T13:29:46;2.75;;;2.55;;
55617;SDS011;41492;49.804;9.952;2022-08-21T13:32:18;2.50;;;2.40;;
55617;SDS011;41492;49.804;9.952;2022-08-21T13:34:49;2.83;;;2.63;;
55617;SDS011;41492;49.804;9.952;2022-08-21T13:37:15;3.13;;;2.78;;
55617;SDS011;41492;49.804;9.952;2022-08-21T13:39:47;3.22;;;3.00;;
55617;SDS011;41492;49.804;9.952;2022-08-21T13:42:15;2.55;;;2.35;;
55617;SDS011;41492;49.804;9.952;2022-08-21T13:44:43;2.72;;;2.53;;
55617;SDS011;41492;49.804;9.952;2022-08-21T13:47:12;2.78;;;2.58;;
55617;SDS011;41492;49.804;9.952;2022-08-21T13:49:42;3.05;;;2.67;;
55617;SDS011;41492;49.804;9.952;2022-08-21T13:52:13;2.90;;;2.70;;
55617;SDS011;41492;49.804;9.952;2022-08-21T13:54:41;4.57;;;2.40;;
55617;SDS011;41492;49.804;9.952;2022-08-21T13:57:15;2.60;;;2.40;;
55617;SDS011;41492;49.804;9.952;2022-08-21T13:59:42;3.45;;;2.90;;
55617;SDS011;41492;49.804;9.952;2022-08-21T14:02:10;3.50;;;2.60;;
55617;SDS011;41492;49.804;9.952;2022-08-21T14:04:41;2.80;;;2.60;;
55617;SDS011;41492;49.804;9.952;2022-08-21T14:07:18;2.85;;;2.58;;
55617;SDS011;41492;49.804;9.952;2022-08-21T14:09:46;2.65;;;2.45;;
55617;SDS011;41492;49.804;9.952;2022-08-21T14:12:14;2.58;;;2.38;;
55617;SDS011;41492;49.804;9.952;2022-08-21T14:14:42;3.40;;;2.55;;
55617;SDS011;41492;49.804;9.952;2022-08-21T14:17:11;2.17;;;2.08;;
55617;SDS011;41492;49.804;9.952;2022-08-21T14:19:40;2.80;;;2.60;;
55617;SDS011;41492;49.804;9.952;2022-08-21T14:22:24;2.55;;;2.35;;
55617;SDS011;41492;49.804;9.952;2022-08-21T14:25:02;2.60;;;2.40;;
55617;SDS011;41492;49.804;9.952;2022-08-21T14:27:31;2.42;;;2.22;;
55617;SDS011;41492;49.804;9.952;2022-08-21T14:29:59;2.60;;;2.40;;
55617;SDS011;41492;49.804;9.952;2022-08-21T14:32:30;2.67;;;2.47;;
55617;SDS011;41492;49.804;9.952;2022-08-21T14:35:03;3.08;;;2.75;;
55617;SDS011;41492;49.804;9.952;2022-08-21T14:37:32;2.67;;;2.47;;
55617;SDS011;41492;49.804;9.952;2022-08-21T14:39:59;2.88;;;2.60;;
55617;SDS011;41492;49.804;9.952;2022-08-21T14:42:26;2.78;;;2.50;;
55617;SDS011;41492;49.804;9.952;2022-08-21T14:44:52;2.75;;;2.55;;
55617;SDS011;41492;49.804;9.952;2022-08-21T14:47:21;2.60;;;2.40;;
55617;SDS011;41492;49.804;9.952;2022-08-21T14:49:48;3.17;;;2.65;;
55617;SDS011;41492;49.804;9.952;2022-08-21T14:52:15;6.82;;;2.47;;
55617;SDS011;41492;49.804;9.952;2022-08-21T14:54:44;2.78;;;2.58;;
55617;SDS011;41492;49.804;9.952;2022-08-21T14:57:10;3.05;;;2.38;;
55617;SDS011;41492;49.804;9.952;2022-08-21T14:59:38;2.42;;;2.25;;
55617;SDS011;41492;49.804;9.952;2022-08-21T15:02:05;2.70;;;2.50;;